sensor_id;sensor_type;location;lat;lon;timestamp;temperature;humidity
975;DHT22;6115;49.296;10.602;2023-12-20T00:01:41;5.80;75.90
975;DHT22;6115;49.296;10.602;2023-12-20T00:06:41;5.80;76.80
975;DHT22;6115;49.296;10.602;2023-12-20T00:11:42;5.70;77.70
975;DHT22;6115;49.296;10.602;2023-12-20T00:16:42;5.70;78.60
975;DHT22;6115;49.296;10.602;2023-12-20T00:21:43;5.70;78.80
975;DHT22;6115;49.296;10.602;2023-12-20T00:26:43;5.60;79.10
975;DHT22;6115;49.296;10.602;2023-12-20T00:31:44;5.60;79.40
975;DHT22;6115;49.296;10.602;2023-12-20T00:36:45;5.60;79.70
975;DHT22;6115;49.296;10.602;2023-12-20T00:41:45;5.60;81.20
975;DHT22;6115;49.296;10.602;2023-12-20T00:46:46;5.60;80.50
975;DHT22;6115;49.296;10.602;2023-12-20T00:51:46;5.60;80.50
975;DHT22;6115;49.296;10.602;2023-12-20T00:56:48;5.50;80.50
975;DHT22;6115;49.296;10.602;2023-12-20T01:01:48;5.50;81.50
975;DHT22;6115;49.296;10.602;2023-12-20T01:06:49;5.50;81.80
975;DHT22;6115;49.296;10.602;2023-12-20T01:11:49;5.50;81.90
975;DHT22;6115;49.296;10.602;2023-12-20T01:16:50;5.50;82.00
975;DHT22;6115;49.296;10.602;2023-12-20T01:21:50;5.50;82.20
975;DHT22;6115;49.296;10.602;2023-12-20T01:26:51;5.50;82.10
975;DHT22;6115;49.296;10.602;2023-12-20T01:31:51;5.50;82.20
975;DHT22;6115;49.296;10.602;2023-12-20T01:36:52;5.40;82.10
975;DHT22;6115;49.296;10.602;2023-12-20T01:41:53;5.40;82.10
975;DHT22;6115;49.296;10.602;2023-12-20T01:46:54;5.40;82.00
975;DHT22;6115;49.296;10.602;2023-12-20T01:51:54;5.40;81.80
975;DHT22;6115;49.296;10.602;2023-12-20T01:56:55;5.30;81.80
975;DHT22;6115;49.296;10.602;2023-12-20T02:01:56;5.30;81.80
975;DHT22;6115;49.296;10.602;2023-12-20T02:06:57;5.20;81.90
975;DHT22;6115;49.296;10.602;2023-12-20T02:11:59;5.20;82.10
975;DHT22;6115;49.296;10.602;2023-12-20T02:16:59;5.00;81.50
975;DHT22;6115;49.296;10.602;2023-12-20T02:22:12;5.00;81.40
975;DHT22;6115;49.296;10.602;2023-12-20T02:27:13;4.90;81.80
975;DHT22;6115;49.296;10.602;2023-12-20T02:32:16;4.80;82.00
975;DHT22;6115;49.296;10.602;2023-12-20T02:37:17;4.70;82.00
975;DHT22;6115;49.296;10.602;2023-12-20T02:42:18;4.60;82.20
975;DHT22;6115;49.296;10.602;2023-12-20T02:47:18;4.60;82.20
975;DHT22;6115;49.296;10.602;2023-12-20T02:52:19;4.60;82.30
975;DHT22;6115;49.296;10.602;2023-12-20T02:57:19;4.50;83.00
975;DHT22;6115;49.296;10.602;2023-12-20T03:02:20;4.50;82.50
975;DHT22;6115;49.296;10.602;2023-12-20T03:07:21;4.50;82.80
975;DHT22;6115;49.296;10.602;2023-12-20T03:12:21;4.50;82.80
975;DHT22;6115;49.296;10.602;2023-12-20T03:17:22;4.40;82.90
975;DHT22;6115;49.296;10.602;2023-12-20T03:22:22;4.40;82.80
975;DHT22;6115;49.296;10.602;2023-12-20T03:27:23;4.40;83.10
975;DHT22;6115;49.296;10.602;2023-12-20T03:32:23;4.40;83.20
975;DHT22;6115;49.296;10.602;2023-12-20T03:37:24;4.40;83.40
975;DHT22;6115;49.296;10.602;2023-12-20T03:42:25;4.40;83.50
975;DHT22;6115;49.296;10.602;2023-12-20T03:47:25;4.30;83.90
975;DHT22;6115;49.296;10.602;2023-12-20T03:52:26;4.40;84.00
975;DHT22;6115;49.296;10.602;2023-12-20T03:57:26;4.30;84.60
975;DHT22;6115;49.296;10.602;2023-12-20T04:02:27;4.30;83.80
975;DHT22;6115;49.296;10.602;2023-12-20T04:07:27;4.30;83.90
975;DHT22;6115;49.296;10.602;2023-12-20T04:12:28;4.20;84.50
975;DHT22;6115;49.296;10.602;2023-12-20T04:17:29;4.20;83.80
975;DHT22;6115;49.296;10.602;2023-12-20T04:22:29;4.20;83.80
975;DHT22;6115;49.296;10.602;2023-12-20T04:27:30;4.10;83.70
975;DHT22;6115;49.296;10.602;2023-12-20T04:32:30;4.10;83.70
975;DHT22;6115;49.296;10.602;2023-12-20T04:37:31;4.10;83.60
975;DHT22;6115;49.296;10.602;2023-12-20T04:42:32;4.10;83.70
975;DHT22;6115;49.296;10.602;2023-12-20T04:47:33;4.10;83.70
975;DHT22;6115;49.296;10.602;2023-12-20T04:52:33;4.20;83.80
975;DHT22;6115;49.296;10.602;2023-12-20T04:57:35;4.20;83.80
975;DHT22;6115;49.296;10.602;2023-12-20T05:02:36;4.10;83.70
975;DHT22;6115;49.296;10.602;2023-12-20T05:07:37;4.10;83.70
975;DHT22;6115;49.296;10.602;2023-12-20T05:12:37;4.10;83.70
975;DHT22;6115;49.296;10.602;2023-12-20T05:17:38;4.10;83.60
975;DHT22;6115;49.296;10.602;2023-12-20T05:22:41;4.10;83.40
975;DHT22;6115;49.296;10.602;2023-12-20T05:27:41;3.90;83.50
975;DHT22;6115;49.296;10.602;2023-12-20T05:32:42;3.90;83.50
975;DHT22;6115;49.296;10.602;2023-12-20T05:37:42;3.80;83.40
975;DHT22;6115;49.296;10.602;2023-12-20T05:42:43;3.80;83.40
975;DHT22;6115;49.296;10.602;2023-12-20T05:47:44;3.80;83.50
975;DHT22;6115;49.296;10.602;2023-12-20T05:52:44;3.80;84.00
975;DHT22;6115;49.296;10.602;2023-12-20T05:57:45;3.90;84.30
975;DHT22;6115;49.296;10.602;2023-12-20T06:02:45;4.00;84.20
975;DHT22;6115;49.296;10.602;2023-12-20T06:07:46;4.00;85.20
975;DHT22;6115;49.296;10.602;2023-12-20T06:12:48;4.00;84.60
975;DHT22;6115;49.296;10.602;2023-12-20T06:17:50;4.10;84.80
975;DHT22;6115;49.296;10.602;2023-12-20T06:22:51;4.10;84.90
975;DHT22;6115;49.296;10.602;2023-12-20T06:27:51;4.20;84.90
975;DHT22;6115;49.296;10.602;2023-12-20T06:32:52;4.10;85.00
975;DHT22;6115;49.296;10.602;2023-12-20T06:37:53;4.20;85.40
975;DHT22;6115;49.296;10.602;2023-12-20T06:42:53;4.20;85.50
975;DHT22;6115;49.296;10.602;2023-12-20T06:47:54;4.20;85.70
975;DHT22;6115;49.296;10.602;2023-12-20T06:52:55;4.30;85.90
975;DHT22;6115;49.296;10.602;2023-12-20T06:57:55;4.30;85.80
975;DHT22;6115;49.296;10.602;2023-12-20T07:02:56;4.30;86.10
975;DHT22;6115;49.296;10.602;2023-12-20T07:07:57;4.30;86.00
975;DHT22;6115;49.296;10.602;2023-12-20T07:12:57;4.40;86.10
975;DHT22;6115;49.296;10.602;2023-12-20T07:17:58;4.40;86.20
975;DHT22;6115;49.296;10.602;2023-12-20T07:23:00;4.40;86.20
975;DHT22;6115;49.296;10.602;2023-12-20T07:28:01;4.50;86.20
975;DHT22;6115;49.296;10.602;2023-12-20T07:33:02;4.50;86.00
975;DHT22;6115;49.296;10.602;2023-12-20T07:38:03;4.50;85.90
975;DHT22;6115;49.296;10.602;2023-12-20T07:43:04;4.50;85.90
975;DHT22;6115;49.296;10.602;2023-12-20T07:48:06;4.50;85.90
975;DHT22;6115;49.296;10.602;2023-12-20T07:53:07;4.60;86.00
975;DHT22;6115;49.296;10.602;2023-12-20T07:58:07;4.60;85.70
975;DHT22;6115;49.296;10.602;2023-12-20T08:03:08;4.60;85.90
975;DHT22;6115;49.296;10.602;2023-12-20T08:08:08;4.60;85.60
975;DHT22;6115;49.296;10.602;2023-12-20T08:13:09;4.60;85.60
975;DHT22;6115;49.296;10.602;2023-12-20T08:18:09;4.70;85.30
975;DHT22;6115;49.296;10.602;2023-12-20T08:23:10;4.70;85.00
975;DHT22;6115;49.296;10.602;2023-12-20T08:28:10;4.70;84.70
975;DHT22;6115;49.296;10.602;2023-12-20T08:33:11;4.60;84.20
975;DHT22;6115;49.296;10.602;2023-12-20T08:38:13;4.60;84.20
975;DHT22;6115;49.296;10.602;2023-12-20T08:43:13;4.60;84.20
975;DHT22;6115;49.296;10.602;2023-12-20T08:48:14;4.50;84.00
975;DHT22;6115;49.296;10.602;2023-12-20T08:53:14;4.50;83.80
975;DHT22;6115;49.296;10.602;2023-12-20T08:58:16;4.60;83.20
975;DHT22;6115;49.296;10.602;2023-12-20T09:03:17;4.60;82.40
975;DHT22;6115;49.296;10.602;2023-12-20T09:08:18;4.60;81.90
975;DHT22;6115;49.296;10.602;2023-12-20T09:13:18;4.60;81.10
975;DHT22;6115;49.296;10.602;2023-12-20T09:18:19;4.50;79.40
975;DHT22;6115;49.296;10.602;2023-12-20T09:23:19;4.50;78.80
975;DHT22;6115;49.296;10.602;2023-12-20T09:28:20;4.60;77.70
975;DHT22;6115;49.296;10.602;2023-12-20T09:33:21;4.60;75.10
975;DHT22;6115;49.296;10.602;2023-12-20T09:38:21;4.50;72.50
975;DHT22;6115;49.296;10.602;2023-12-20T09:43:24;4.60;72.30
975;DHT22;6115;49.296;10.602;2023-12-20T09:48:26;4.80;71.90
975;DHT22;6115;49.296;10.602;2023-12-20T09:53:29;5.20;71.30
975;DHT22;6115;49.296;10.602;2023-12-20T09:58:31;6.10;68.10
975;DHT22;6115;49.296;10.602;2023-12-20T10:03:31;6.60;65.30
975;DHT22;6115;49.296;10.602;2023-12-20T10:08:32;7.00;62.50
975;DHT22;6115;49.296;10.602;2023-12-20T10:13:33;7.60;62.30
975;DHT22;6115;49.296;10.602;2023-12-20T10:18:33;8.00;59.60
975;DHT22;6115;49.296;10.602;2023-12-20T10:23:34;7.70;59.50
975;DHT22;6115;49.296;10.602;2023-12-20T10:28:35;6.40;60.40
975;DHT22;6115;49.296;10.602;2023-12-20T10:33:35;5.60;62.70
975;DHT22;6115;49.296;10.602;2023-12-20T10:38:38;5.40;65.90
975;DHT22;6115;49.296;10.602;2023-12-20T10:43:40;5.20;67.20
975;DHT22;6115;49.296;10.602;2023-12-20T10:48:41;5.20;67.90
975;DHT22;6115;49.296;10.602;2023-12-20T10:53:43;5.10;68.80
975;DHT22;6115;49.296;10.602;2023-12-20T10:58:45;5.10;68.50
975;DHT22;6115;49.296;10.602;2023-12-20T11:03:52;5.10;69.20
975;DHT22;6115;49.296;10.602;2023-12-20T11:14:25;5.30;69.10
975;DHT22;6115;49.296;10.602;2023-12-20T11:19:27;5.30;68.50
975;DHT22;6115;49.296;10.602;2023-12-20T11:24:28;5.10;69.10
975;DHT22;6115;49.296;10.602;2023-12-20T11:29:37;5.20;68.90
975;DHT22;6115;49.296;10.602;2023-12-20T11:34:41;5.50;69.10
975;DHT22;6115;49.296;10.602;2023-12-20T11:39:43;5.50;68.60
975;DHT22;6115;49.296;10.602;2023-12-20T11:44:44;5.30;68.60
975;DHT22;6115;49.296;10.602;2023-12-20T11:49:47;5.10;69.20
975;DHT22;6115;49.296;10.602;2023-12-20T11:54:49;5.20;69.60
975;DHT22;6115;49.296;10.602;2023-12-20T11:59:49;5.20;69.40
975;DHT22;6115;49.296;10.602;2023-12-20T12:04:50;5.10;69.20
975;DHT22;6115;49.296;10.602;2023-12-20T12:09:51;5.10;69.60
975;DHT22;6115;49.296;10.602;2023-12-20T12:14:52;5.20;69.60
975;DHT22;6115;49.296;10.602;2023-12-20T12:20:05;5.20;68.80
975;DHT22;6115;49.296;10.602;2023-12-20T12:25:11;5.20;68.20
975;DHT22;6115;49.296;10.602;2023-12-20T12:30:12;5.20;68.40
975;DHT22;6115;49.296;10.602;2023-12-20T12:35:14;5.10;67.90
975;DHT22;6115;49.296;10.602;2023-12-20T12:40:16;5.10;68.30
975;DHT22;6115;49.296;10.602;2023-12-20T12:45:16;5.00;67.60
975;DHT22;6115;49.296;10.602;2023-12-20T12:50:17;5.00;68.20
975;DHT22;6115;49.296;10.602;2023-12-20T12:55:18;4.90;67.90
975;DHT22;6115;49.296;10.602;2023-12-20T13:00:19;4.90;68.20
975;DHT22;6115;49.296;10.602;2023-12-20T13:05:22;5.10;67.90
975;DHT22;6115;49.296;10.602;2023-12-20T13:10:24;5.00;67.40
975;DHT22;6115;49.296;10.602;2023-12-20T13:15:25;5.10;66.70
975;DHT22;6115;49.296;10.602;2023-12-20T13:20:26;5.00;66.60
975;DHT22;6115;49.296;10.602;2023-12-20T13:25:26;5.00;66.90
975;DHT22;6115;49.296;10.602;2023-12-20T13:30:27;4.90;66.30
975;DHT22;6115;49.296;10.602;2023-12-20T13:35:27;4.90;66.50
975;DHT22;6115;49.296;10.602;2023-12-20T13:40:28;4.90;67.10
975;DHT22;6115;49.296;10.602;2023-12-20T13:45:29;4.80;67.50
975;DHT22;6115;49.296;10.602;2023-12-20T13:50:29;4.70;68.30
975;DHT22;6115;49.296;10.602;2023-12-20T13:55:30;4.50;69.90
975;DHT22;6115;49.296;10.602;2023-12-20T14:00:30;4.40;70.90
975;DHT22;6115;49.296;10.602;2023-12-20T14:05:31;4.40;71.40
975;DHT22;6115;49.296;10.602;2023-12-20T14:10:32;4.40;71.40
975;DHT22;6115;49.296;10.602;2023-12-20T14:15:32;4.40;71.20
975;DHT22;6115;49.296;10.602;2023-12-20T14:20:37;4.50;71.70
975;DHT22;6115;49.296;10.602;2023-12-20T14:25:40;4.30;71.10
975;DHT22;6115;49.296;10.602;2023-12-20T14:30:41;4.40;71.50
975;DHT22;6115;49.296;10.602;2023-12-20T14:35:42;4.30;71.80
975;DHT22;6115;49.296;10.602;2023-12-20T14:40:44;4.30;72.00
975;DHT22;6115;49.296;10.602;2023-12-20T14:45:45;4.30;72.30
975;DHT22;6115;49.296;10.602;2023-12-20T14:50:45;4.40;71.80
975;DHT22;6115;49.296;10.602;2023-12-20T14:55:48;4.30;71.70
975;DHT22;6115;49.296;10.602;2023-12-20T15:00:51;4.30;71.80
975;DHT22;6115;49.296;10.602;2023-12-20T15:05:51;4.30;71.40
975;DHT22;6115;49.296;10.602;2023-12-20T15:10:52;4.30;70.80
975;DHT22;6115;49.296;10.602;2023-12-20T15:15:52;4.40;70.50
975;DHT22;6115;49.296;10.602;2023-12-20T15:20:53;4.30;69.70
975;DHT22;6115;49.296;10.602;2023-12-20T15:25:53;4.30;69.80
975;DHT22;6115;49.296;10.602;2023-12-20T15:30:54;4.30;69.70
975;DHT22;6115;49.296;10.602;2023-12-20T15:35:55;4.40;69.50
975;DHT22;6115;49.296;10.602;2023-12-20T15:40:55;4.40;69.10
975;DHT22;6115;49.296;10.602;2023-12-20T15:45:56;4.40;68.70
975;DHT22;6115;49.296;10.602;2023-12-20T15:50:56;4.40;68.60
975;DHT22;6115;49.296;10.602;2023-12-20T15:55:58;4.40;68.40
975;DHT22;6115;49.296;10.602;2023-12-20T16:00:59;4.40;68.40
975;DHT22;6115;49.296;10.602;2023-12-20T16:06:00;4.40;68.70
975;DHT22;6115;49.296;10.602;2023-12-20T16:11:00;4.40;68.90
975;DHT22;6115;49.296;10.602;2023-12-20T16:16:01;4.40;69.00
975;DHT22;6115;49.296;10.602;2023-12-20T16:21:03;4.30;69.70
975;DHT22;6115;49.296;10.602;2023-12-20T16:26:04;4.30;69.70
975;DHT22;6115;49.296;10.602;2023-12-20T16:31:04;4.30;69.70
975;DHT22;6115;49.296;10.602;2023-12-20T16:36:05;4.20;69.80
975;DHT22;6115;49.296;10.602;2023-12-20T16:41:06;4.10;70.60
975;DHT22;6115;49.296;10.602;2023-12-20T16:46:06;4.00;70.70
975;DHT22;6115;49.296;10.602;2023-12-20T16:51:08;4.00;71.40
975;DHT22;6115;49.296;10.602;2023-12-20T16:56:08;3.90;71.80
975;DHT22;6115;49.296;10.602;2023-12-20T17:01:09;4.00;71.90
975;DHT22;6115;49.296;10.602;2023-12-20T17:06:10;4.00;72.20
975;DHT22;6115;49.296;10.602;2023-12-20T17:11:11;4.00;72.10
975;DHT22;6115;49.296;10.602;2023-12-20T17:16:12;4.10;72.00
975;DHT22;6115;49.296;10.602;2023-12-20T17:21:12;4.10;72.00
975;DHT22;6115;49.296;10.602;2023-12-20T17:26:13;4.10;71.80
975;DHT22;6115;49.296;10.602;2023-12-20T17:31:14;4.10;71.80
975;DHT22;6115;49.296;10.602;2023-12-20T17:36:14;4.20;72.00
975;DHT22;6115;49.296;10.602;2023-12-20T17:41:17;4.30;71.90
975;DHT22;6115;49.296;10.602;2023-12-20T17:46:17;4.40;71.50
975;DHT22;6115;49.296;10.602;2023-12-20T17:51:18;4.40;71.20
975;DHT22;6115;49.296;10.602;2023-12-20T17:56:18;4.30;71.50
975;DHT22;6115;49.296;10.602;2023-12-20T18:01:19;4.40;71.60
975;DHT22;6115;49.296;10.602;2023-12-20T18:06:20;4.40;71.90
975;DHT22;6115;49.296;10.602;2023-12-20T18:11:20;4.40;72.60
975;DHT22;6115;49.296;10.602;2023-12-20T18:16:21;4.30;73.10
975;DHT22;6115;49.296;10.602;2023-12-20T18:21:22;4.20;74.30
975;DHT22;6115;49.296;10.602;2023-12-20T18:26:22;4.10;74.30
975;DHT22;6115;49.296;10.602;2023-12-20T18:31:23;4.10;74.90
975;DHT22;6115;49.296;10.602;2023-12-20T18:36:24;4.10;75.10
975;DHT22;6115;49.296;10.602;2023-12-20T18:41:24;4.10;75.40
975;DHT22;6115;49.296;10.602;2023-12-20T18:46:25;4.10;75.50
975;DHT22;6115;49.296;10.602;2023-12-20T18:51:25;4.20;75.50
975;DHT22;6115;49.296;10.602;2023-12-20T18:56:27;4.10;75.60
975;DHT22;6115;49.296;10.602;2023-12-20T19:01:27;4.10;76.40
975;DHT22;6115;49.296;10.602;2023-12-20T19:06:28;4.00;75.80
975;DHT22;6115;49.296;10.602;2023-12-20T19:11:28;4.00;76.20
975;DHT22;6115;49.296;10.602;2023-12-20T19:16:29;3.90;76.50
975;DHT22;6115;49.296;10.602;2023-12-20T19:21:29;3.90;76.90
975;DHT22;6115;49.296;10.602;2023-12-20T19:26:30;3.90;77.30
975;DHT22;6115;49.296;10.602;2023-12-20T19:31:31;3.80;77.70
975;DHT22;6115;49.296;10.602;2023-12-20T19:36:31;3.70;78.20
975;DHT22;6115;49.296;10.602;2023-12-20T19:41:32;3.70;78.50
975;DHT22;6115;49.296;10.602;2023-12-20T19:46:32;3.70;78.70
975;DHT22;6115;49.296;10.602;2023-12-20T19:51:33;3.70;78.70
975;DHT22;6115;49.296;10.602;2023-12-20T19:56:33;3.80;78.80
975;DHT22;6115;49.296;10.602;2023-12-20T20:01:34;3.80;78.80
975;DHT22;6115;49.296;10.602;2023-12-20T20:06:39;3.80;78.90
975;DHT22;6115;49.296;10.602;2023-12-20T20:11:39;3.80;78.80
975;DHT22;6115;49.296;10.602;2023-12-20T20:16:43;3.90;78.90
975;DHT22;6115;49.296;10.602;2023-12-20T20:21:43;3.90;78.90
975;DHT22;6115;49.296;10.602;2023-12-20T20:26:44;3.90;78.90
975;DHT22;6115;49.296;10.602;2023-12-20T20:31:44;3.90;78.90
975;DHT22;6115;49.296;10.602;2023-12-20T20:36:45;3.80;78.70
975;DHT22;6115;49.296;10.602;2023-12-20T20:41:46;3.80;79.10
975;DHT22;6115;49.296;10.602;2023-12-20T20:46:46;3.70;79.50
975;DHT22;6115;49.296;10.602;2023-12-20T20:51:47;3.80;79.80
975;DHT22;6115;49.296;10.602;2023-12-20T20:56:47;3.80;80.10
975;DHT22;6115;49.296;10.602;2023-12-20T21:01:48;3.80;80.00
975;DHT22;6115;49.296;10.602;2023-12-20T21:06:49;3.80;80.00
975;DHT22;6115;49.296;10.602;2023-12-20T21:11:49;3.80;79.60
975;DHT22;6115;49.296;10.602;2023-12-20T21:16:50;3.80;79.60
975;DHT22;6115;49.296;10.602;2023-12-20T21:21:50;3.90;79.60
975;DHT22;6115;49.296;10.602;2023-12-20T21:26:51;4.00;79.50
975;DHT22;6115;49.296;10.602;2023-12-20T21:31:52;4.00;78.90
975;DHT22;6115;49.296;10.602;2023-12-20T21:36:54;4.10;79.10
975;DHT22;6115;49.296;10.602;2023-12-20T21:41:55;4.10;79.00
975;DHT22;6115;49.296;10.602;2023-12-20T21:46:55;4.10;78.70
975;DHT22;6115;49.296;10.602;2023-12-20T21:51:56;4.10;78.60
975;DHT22;6115;49.296;10.602;2023-12-20T21:56:57;4.10;78.30
975;DHT22;6115;49.296;10.602;2023-12-20T22:01:57;4.20;78.00
975;DHT22;6115;49.296;10.602;2023-12-20T22:06:58;4.20;77.60
975;DHT22;6115;49.296;10.602;2023-12-20T22:11:59;4.30;77.40
975;DHT22;6115;49.296;10.602;2023-12-20T22:17:00;4.30;76.90
975;DHT22;6115;49.296;10.602;2023-12-20T22:22:01;4.30;76.70
975;DHT22;6115;49.296;10.602;2023-12-20T22:27:02;4.40;76.40
975;DHT22;6115;49.296;10.602;2023-12-20T22:32:03;4.40;76.20
975;DHT22;6115;49.296;10.602;2023-12-20T22:37:04;4.40;76.10
975;DHT22;6115;49.296;10.602;2023-12-20T22:42:04;4.40;76.40
975;DHT22;6115;49.296;10.602;2023-12-20T22:47:05;4.40;76.90
975;DHT22;6115;49.296;10.602;2023-12-20T22:52:06;4.30;77.40
975;DHT22;6115;49.296;10.602;2023-12-20T22:57:06;4.40;77.40
975;DHT22;6115;49.296;10.602;2023-12-20T23:02:09;4.40;76.80
975;DHT22;6115;49.296;10.602;2023-12-20T23:07:11;4.40;76.60
975;DHT22;6115;49.296;10.602;2023-12-20T23:12:11;4.40;76.40
975;DHT22;6115;49.296;10.602;2023-12-20T23:17:12;4.30;76.40
975;DHT22;6115;49.296;10.602;2023-12-20T23:22:12;4.30;76.50
975;DHT22;6115;49.296;10.602;2023-12-20T23:27:13;4.30;76.70
975;DHT22;6115;49.296;10.602;2023-12-20T23:32:14;4.20;76.80
975;DHT22;6115;49.296;10.602;2023-12-20T23:37:14;4.20;76.80
975;DHT22;6115;49.296;10.602;2023-12-20T23:42:15;4.30;76.80
975;DHT22;6115;49.296;10.602;2023-12-20T23:47:17;4.30;76.20
975;DHT22;6115;49.296;10.602;2023-12-20T23:52:18;4.40;76.00
975;DHT22;6115;49.296;10.602;2023-12-20T23:57:18;4.40;75.30
